Time,TemperatureF,DewpointF,PressureIn,WindDirection,WindDirectionDegrees,WindSpeedMPH,WindSpeedGustMPH,Humidity,HourlyPrecipIn,Conditions,Clouds,dailyrainin,SoftwareType,DateUTC
2013-01-30 07:00:00,32.0,31.2,29.36,NNW,339,2.0,2.0,97,0.00,,,0.03,Wunderground v.1.15,2013-01-30 13:00:00,
2013-01-30 07:05:00,32.0,31.2,29.36,ENE,57,1.0,1.0,97,0.00,,,0.03,Wunderground v.1.15,2013-01-30 13:05:00,
2013-01-30 07:10:00,32.0,31.2,29.35,NW,314,1.0,1.0,97,0.00,,,0.03,Wunderground v.1.15,2013-01-30 13:10:00,
2013-01-30 07:15:00,32.0,31.2,29.36,NNW,342,1.0,4.0,97,0.00,,,0.03,Wunderground v.1.15,2013-01-30 13:15:00,
2013-01-30 07:25:00,32.0,31.2,29.37,NNE,20,2.0,2.0,97,0.00,,,0.03,Wunderground v.1.15,2013-01-30 13:25:00,
2013-01-30 07:30:00,32.0,31.2,29.38,WNW,300,2.0,3.0,97,0.00,,,0.03,Wunderground v.1.15,2013-01-30 13:30:00,
2013-01-30 07:35:00,32.0,31.2,29.37,North,354,2.0,3.0,97,0.00,,,0.03,Wunderground v.1.15,2013-01-30 13:35:00,
2013-01-30 07:40:00,31.9,31.1,29.36,NW,316,2.0,2.0,97,0.00,,,0.03,Wunderground v.1.15,2013-01-30 13:40:00,
2013-01-30 07:45:00,32.0,31.2,29.36,NNW,340,2.0,3.0,97,0.00,,,0.03,Wunderground v.1.15,2013-01-30 13:45:00,
2013-01-30 07:50:00,31.9,31.1,29.36,NNE,15,2.0,2.0,97,0.00,,,0.03,Wunderground v.1.15,2013-01-30 13:50:00,
2013-01-30 08:00:00,31.9,31.1,29.35,NNW,338,2.0,2.0,97,0.00,,,0.03,Wunderground v.1.15,2013-01-30 14:00:00,
2013-01-30 08:10:00,31.7,30.7,29.36,North,5,3.0,3.0,96,0.00,,,0.03,Wunderground v.1.15,2013-01-30 14:10:00,
2013-01-30 08:15:00,31.7,30.7,29.36,North,357,2.0,3.0,96,0.00,,,0.03,Wunderground v.1.15,2013-01-30 14:15:00,
2013-01-30 08:20:00,31.7,30.7,29.36,NNW,342,2.0,2.0,96,0.00,,,0.03,Wunderground v.1.15,2013-01-30 14:20:00,
2013-01-30 08:25:00,31.6,30.6,29.37,NNE,30,2.0,2.0,96,0.00,,,0.03,Wunderground v.1.15,2013-01-30 14:25:00,
2013-01-30 08:35:00,31.3,30.3,29.35,NW,304,2.0,2.0,96,0.00,,,0.03,Wunderground v.1.15,2013-01-30 14:35:00,
2013-01-30 08:40:00,31.1,30.1,29.35,NNW,340,2.0,2.0,96,0.00,,,0.03,Wunderground v.1.15,2013-01-30 14:40:00,
2013-01-30 08:45:00,31.0,30.0,29.35,NNW,340,2.0,3.0,96,0.00,,,0.03,Wunderground v.1.15,2013-01-30 14:45:00,
2013-01-30 08:50:00,31.0,30.0,29.35,NNW,342,2.0,5.0,96,0.00,,,0.03,Wunderground v.1.15,2013-01-30 14:50:00,
2013-01-30 09:00:00,30.8,29.8,29.34,NNW,333,3.0,3.0,96,0.00,,,0.03,Wunderground v.1.15,2013-01-30 15:00:00,
2013-01-30 09:09:00,30.8,29.8,29.34,NE,37,4.0,7.0,96,0.00,,,0.03,Wunderground v.1.15,2013-01-30 15:09:00,
2013-01-30 09:15:00,30.6,29.6,29.35,NNW,345,4.0,7.0,96,0.00,,,0.03,Wunderground v.1.15,2013-01-30 15:15:00,
2013-01-30 09:20:00,30.4,29.4,29.34,NNE,27,4.0,6.0,96,0.00,,,0.03,Wunderground v.1.15,2013-01-30 15:20:00,
2013-01-30 09:30:00,30.4,29.4,29.34,WNW,283,4.0,4.0,96,0.00,,,0.03,Wunderground v.1.15,2013-01-30 15:30:00,
2013-01-30 09:39:00,30.2,29.2,29.35,North,1,3.0,3.0,96,0.00,,,0.03,Wunderground v.1.15,2013-01-30 15:39:00,
2013-01-30 09:44:00,30.0,28.7,29.35,WNW,284,3.0,5.0,95,0.00,,,0.03,Wunderground v.1.15,2013-01-30 15:44:00,
2013-01-30 09:54:00,29.9,28.6,29.35,NNW,328,3.0,4.0,95,0.00,,,0.03,Wunderground v.1.15,2013-01-30 15:54:00,
2013-01-30 09:59:00,29.8,28.5,29.34,West,263,4.0,4.0,95,0.00,,,0.03,Wunderground v.1.15,2013-01-30 15:59:00,
2013-01-30 10:09:00,29.7,28.4,29.35,NNW,340,3.0,7.0,95,0.00,,,0.03,Wunderground v.1.15,2013-01-30 16:09:00,
2013-01-30 10:14:00,29.6,28.3,29.35,North,359,3.0,7.0,95,0.00,,,0.03,Wunderground v.1.15,2013-01-30 16:14:00,
2013-01-30 10:19:00,29.5,28.2,29.35,NNW,338,3.0,3.0,95,0.00,,,0.03,Wunderground v.1.15,2013-01-30 16:19:00,
2013-01-30 10:34:00,29.3,28.0,29.36,North,11,3.0,4.0,95,0.00,,,0.03,Wunderground v.1.15,2013-01-30 16:34:00,
2013-01-30 10:44:00,29.4,28.1,29.36,NNW,342,4.0,6.0,95,0.00,,,0.03,Wunderground v.1.15,2013-01-30 16:44:00,
2013-01-30 10:49:00,29.3,28.0,29.36,WNW,301,4.0,4.0,95,0.00,,,0.03,Wunderground v.1.15,2013-01-30 16:49:00,
2013-01-30 10:59:00,29.0,27.5,29.35,North,1,4.0,5.0,94,0.00,,,0.03,Wunderground v.1.15,2013-01-30 16:59:00,
2013-01-30 11:09:00,28.9,27.4,29.35,North,350,4.0,4.0,94,0.00,,,0.03,Wunderground v.1.15,2013-01-30 17:09:00,
2013-01-30 11:14:00,28.8,27.3,29.35,NNW,330,4.0,4.0,94,0.00,,,0.03,Wunderground v.1.15,2013-01-30 17:14:00,
2013-01-30 11:24:00,28.9,27.4,29.35,North,4,4.0,5.0,94,0.00,,,0.03,Wunderground v.1.15,2013-01-30 17:24:00,
2013-01-30 11:29:00,28.9,27.4,29.35,NNW,347,4.0,4.0,94,0.00,,,0.03,Wunderground v.1.15,2013-01-30 17:29:00,
2013-01-30 11:39:00,29.2,27.7,29.35,WSW,257,3.0,3.0,94,0.00,,,0.03,Wunderground v.1.15,2013-01-30 17:39:00,
2013-01-30 11:44:00,29.1,27.6,29.35,NNW,338,4.0,4.0,94,0.00,,,0.03,Wunderground v.1.15,2013-01-30 17:44:00,
2013-01-30 11:49:00,28.9,27.1,29.35,WNW,290,3.0,3.0,93,0.00,,,0.03,Wunderground v.1.15,2013-01-30 17:49:00,
2013-01-30 11:55:00,29.0,27.5,29.34,NNW,333,3.0,3.0,94,0.00,,,0.03,Wunderground v.1.15,2013-01-30 17:55:00,
2013-01-30 12:00:00,29.2,27.7,29.34,North,4,3.0,7.0,94,0.00,,,0.03,Wunderground v.1.15,2013-01-30 18:00:00,
2013-01-30 12:10:00,29.4,27.6,29.33,West,274,3.0,3.0,93,0.00,,,0.03,Wunderground v.1.15,2013-01-30 18:10:00,
2013-01-30 12:15:00,29.1,27.3,29.33,WNW,302,3.0,4.0,93,0.00,,,0.03,Wunderground v.1.15,2013-01-30 18:15:00,
2013-01-30 12:20:00,28.9,27.1,29.33,NNE,18,4.0,9.0,93,0.00,,,0.03,Wunderground v.1.15,2013-01-30 18:20:00,
2013-01-30 12:30:00,28.8,27.0,29.33,WNW,292,4.0,4.0,93,0.00,,,0.03,Wunderground v.1.15,2013-01-30 18:30:00,
2013-01-30 12:40:00,29.2,27.4,29.33,WNW,294,3.0,3.0,93,0.00,,,0.03,Wunderground v.1.15,2013-01-30 18:40:00,
2013-01-30 12:45:00,29.2,27.4,29.33,WNW,299,2.0,3.0,93,0.00,,,0.03,Wunderground v.1.15,2013-01-30 18:45:00,
2013-01-30 12:50:00,29.3,27.5,29.33,NNW,341,2.0,5.0,93,0.00,,,0.03,Wunderground v.1.15,2013-01-30 18:50:00,
2013-01-30 13:00:00,29.6,28.1,29.33,NW,316,3.0,3.0,94,0.00,,,0.03,Wunderground v.1.15,2013-01-30 19:00:00,
2013-01-30 13:10:00,29.2,26.9,29.33,WNW,285,4.0,8.0,91,0.00,,,0.03,Wunderground v.1.15,2013-01-30 19:10:00,
2013-01-30 13:15:00,29.1,27.1,29.33,NNE,16,4.0,8.0,92,0.00,,,0.03,Wunderground v.1.15,2013-01-30 19:15:00,
2013-01-30 13:25:00,28.8,26.8,29.33,NNW,340,4.0,4.0,92,0.00,,,0.03,Wunderground v.1.15,2013-01-30 19:25:00,
2013-01-30 13:30:00,28.7,26.9,29.33,NNW,331,4.0,4.0,93,0.00,,,0.03,Wunderground v.1.15,2013-01-30 19:30:00,
2013-01-30 13:40:00,28.8,27.0,29.33,West,267,3.0,3.0,93,0.00,,,0.03,Wunderground v.1.15,2013-01-30 19:40:00,
2013-01-30 13:45:00,28.5,26.5,29.33,WNW,291,3.0,4.0,92,0.00,,,0.03,Wunderground v.1.15,2013-01-30 19:45:00,
2013-01-30 13:55:00,27.6,25.3,29.33,NNW,335,4.0,5.0,91,0.00,,,0.03,Wunderground v.1.15,2013-01-30 19:55:00,